createdAt,value
2023-01-18T00:00:29.526Z,100
2023-01-18T00:16:12.078Z,100
2023-01-18T00:31:55.408Z,100
2023-01-18T00:47:38.379Z,100
2023-01-18T01:03:20.908Z,100
2023-01-18T01:19:03.483Z,100
2023-01-18T01:34:46.057Z,100
2023-01-18T01:50:29.272Z,100
2023-01-18T02:06:12.020Z,100
2023-01-18T02:21:55.031Z,100
2023-01-18T02:37:37.758Z,100
2023-01-18T02:53:21.001Z,100
2023-01-18T03:09:04.026Z,100
2023-01-18T03:24:46.551Z,100
2023-01-18T03:40:29.786Z,100
2023-01-18T03:56:12.434Z,100
2023-01-18T04:11:55.410Z,100
2023-01-18T04:27:38.606Z,100
2023-01-18T04:43:21.469Z,100
2023-01-18T04:59:04.836Z,100
2023-01-18T05:14:47.345Z,100
2023-01-18T05:30:30.417Z,100
2023-01-18T05:46:13.755Z,100
2023-01-18T06:01:56.625Z,100
2023-01-18T06:17:39.810Z,100
2023-01-18T06:33:22.733Z,100
2023-01-18T06:49:05.270Z,100
2023-01-18T07:04:48.188Z,100
2023-01-18T07:20:31.444Z,100
2023-01-18T07:36:13.898Z,100
2023-01-18T07:51:57.193Z,100
2023-01-18T08:07:39.732Z,100
2023-01-18T08:23:22.319Z,100
2023-01-18T08:39:05.278Z,100
2023-01-18T08:54:48.103Z,100
2023-01-18T09:10:30.636Z,100
2023-01-18T09:26:13.088Z,100
2023-01-18T09:41:55.903Z,99.71
2023-01-18T09:57:38.621Z,95.07
2023-01-18T10:13:20.951Z,93.07
2023-01-18T10:29:04.162Z,92.02
2023-01-18T10:44:47.290Z,92.44
2023-01-18T11:00:30.252Z,92.25
2023-01-18T11:16:13.369Z,91.75
2023-01-18T11:31:56.294Z,89.51
2023-01-18T11:47:39.180Z,89.39
2023-01-18T11:48:26.646Z,89.43
2023-01-18T12:04:09.553Z,90.58
2023-01-18T12:19:52.048Z,90.5
2023-01-18T12:35:35.167Z,91.01
2023-01-18T12:51:18.333Z,92.06
2023-01-18T13:07:00.908Z,92.8
2023-01-18T13:22:43.243Z,94.27
2023-01-18T13:38:26.426Z,95.2
2023-01-18T13:54:09.411Z,96.68
2023-01-18T14:09:51.800Z,97.26
2023-01-18T14:25:34.721Z,98.09
2023-01-18T14:41:17.862Z,99.96
2023-01-18T14:57:00.469Z,100
2023-01-18T15:12:43.003Z,100
2023-01-18T15:28:25.979Z,100
2023-01-18T15:44:09.436Z,100
2023-01-18T15:59:52.227Z,100
2023-01-18T16:15:34.934Z,100
2023-01-18T16:31:18.024Z,100
2023-01-18T16:47:00.642Z,100
2023-01-18T17:02:43.698Z,100
2023-01-18T17:18:26.278Z,100
2023-01-18T17:34:09.176Z,100
2023-01-18T17:49:51.905Z,100
2023-01-18T18:05:34.470Z,100
2023-01-18T18:21:17.260Z,100
2023-01-18T18:37:00.454Z,100
2023-01-18T18:52:43.760Z,100
2023-01-18T19:08:26.673Z,100
2023-01-18T19:24:09.875Z,100
2023-01-18T19:39:52.909Z,100
2023-01-18T19:55:35.284Z,100
2023-01-18T20:11:18.070Z,100
2023-01-18T20:27:01.213Z,100
2023-01-18T20:42:43.759Z,99.89
2023-01-18T20:58:27.132Z,100
2023-01-18T21:14:10.238Z,100
2023-01-18T21:29:52.908Z,100
2023-01-18T21:45:35.958Z,100
2023-01-18T22:01:18.551Z,100
2023-01-18T22:17:01.044Z,99.95
2023-01-18T22:32:44.116Z,100
2023-01-18T22:48:27.013Z,100
2023-01-18T23:04:10.069Z,100
2023-01-18T23:19:52.492Z,100
2023-01-18T23:35:35.402Z,100
2023-01-18T23:51:18.020Z,100
